Thursday, April 17, 2014
07:00 UTC
  |  Log In   |  Register Free
Airport Search:

Northeast Philadelphia Airport
(KPNE)

FAA data valid effective April 3, 2014 until May 29, 2014 (unless otherwise noted).

 
 
 
 
 
 
 
 
 
 
 
 
 
 

Current Aviation Weather for Northeast Philadelphia Airport (KPNE)

The most recent METAR observation for KPNE was updated at: 0554 UTC
METAR Summary (Translated METAR)
KPNE
170554Z 05005KT 10SM CLR 02/M07 A3061 RMK AO2 SLP364 T00171072 10067 20017 53016
KLOM
(12.1 nm NW from KPNE)
170535Z AUTO 00000KT 10SM CLR 02/M06 A3057 RMK AO1
TAF Summary (Translated TAF)
KPNE
170535Z 1706/1806 03006KT P6SM SCT250 FM171200 07010KT P6SM SCT250 FM171700 09011G18KT P6SM SCT040 FM180100 09006KT P6SM SCT200
  Airport Weather Conditions for KPNE

 Current Weather at PNE
35° F
Fair
Northeast winds at 5.8 mph
PNE NOAA Radar

Pressure: 30.61 in
Humidity: 52%
Wind: Northeast at 5.8 MPH (5 KT)
Dew Point: 19.0°F
Visibility: 10.00 mi


Airport Weather Forecast for KPNE

Translated METAR and TAF for KPNE
Translated METAR for KPNE (0700 UTC 17 April 2014)
found at http://aviationweather.gov/adds/metars/
 
METAR text: KPNE 170654Z 03007KT 10SM CLR 02/M07 A3060 RMK AO2 SLP362 T00171072
Conditions at: KPNE (PHILADELPHIA/NE , PA, US) observed 0654 UTC 17 April 2014
Temperature: 1.7°C (35°F)
Dewpoint: -7.2°C (19°F) [RH = 52%]
Pressure (altimeter): 30.60 inches Hg (1036.3 mb)
[Sea-level pressure: 1036.2 mb]
Winds: from the NNE (30 degrees) at 8 MPH (7 knots; 3.6 m/s)
Visibility: 10 or more miles (16+ km)
Ceiling: at least 12,000 feet AGL
Clouds: sky clear below 12,000 feet AGL
Weather: no significant weather observed at this time
Translated TAF for KPNE
Forecast for: KPNE (PHILADELPHIA/NE , PA, US)
TAF Text: KPNE 170535Z 1706/1806 03006KT P6SM SCT250
Forecast period: 0600 to 1200 UTC 17 April 2014
Forecast type: FROM: standard forecast or significant change
Winds: from the NNE (30 degrees) at 7 MPH (6 knots; 3.1 m/s)
Visibility: 6 or more miles (10+ km)
Clouds: scattered clouds at 25000 feet AGL
Weather: no significant weather forecast for this period
TAF Text: FM171200 07010KT P6SM SCT250
Forecast period: 1200 to 1700 UTC 17 April 2014
Forecast type: FROM: standard forecast or significant change
Winds: from the ENE (70 degrees) at 12 MPH (10 knots; 5.2 m/s)
Visibility: 6 or more miles (10+ km)
Clouds: scattered clouds at 25000 feet AGL
Weather: no significant weather forecast for this period
TAF Text: FM171700 09011G18KT P6SM SCT040
Forecast period: 1700 UTC 17 April 2014 to 0100 UTC 18 April 2014
Forecast type: FROM: standard forecast or significant change
Winds: from the E (90 degrees) at 13 MPH (11 knots; 5.7 m/s)
gusting to 21 MPH (18 knots; 9.4 m/s)
Visibility: 6 or more miles (10+ km)
Clouds: scattered clouds at 4000 feet AGL
Weather: no significant weather forecast for this period
TAF Text: FM180100 09006KT P6SM SCT200
Forecast period: 0100 to 0600 UTC 18 April 2014
Forecast type: FROM: standard forecast or significant change
Winds: from the E (90 degrees) at 7 MPH (6 knots; 3.1 m/s)
Visibility: 6 or more miles (10+ km)
Clouds: scattered clouds at 20000 feet AGL
Weather: no significant weather forecast for this period

Find All Airport Services Find A Hotel Find A Rental Car Find A Golf Course Find A Restaurant $100 Hamburger



FBO's on the Field
FBO Company Facility Photos Services Transportation Aviation Fuel Prices: Prices include tax
Catering Weather Repair Courtesy Rental Type 100LL JetA JetA+ MOGAS 8087
 
Atlantic Aviation

This FBO has not yet been rated
FS:Texaco
Last Updated: Apr-15
Login to update fuel prices
SS:
Contact Atlantic AviationMore FBO Information
 
North Philadelphia Jet Center

Currently rated 5 by 2 people
FS:Avfuel
Last Updated: Apr-14
Login to update fuel prices
SS:
Contact North Philadelphia Jet CenterMore FBO Information
 
Add another FBO Facility Photos Catering Weather Repair Courtesy Rental Type 100LL JetA JetA+ MOGAS 8087
Services Transportation Aviation Fuel Prices: Prices include tax


GlobalAir.com Airport Resource Center model-print
model-print
model-print
model-print